Time;durP1;ratioP1;P1;durP2;ratioP2;P2;SDS_P1;SDS_P2;PMS_P1;PMS_P2;Temp;Humidity;BMP_temperature;BMP_pressure;BME280_temperature;BME280_humidity;BME280_pressure;Samples;Min_cycle;Max_cycle;Signal;HPM_P1;HPM_P2
2022/08/16 00:01:45;;;;;;;;;;;;;;;;;;4973149;28;20287;-89
2022/08/16 00:04:11;;;;;;;;;;;;;;;;;;4973494;28;19911;-89
2022/08/16 00:06:36;;;;;;;;;;;;;;;;;;4972618;28;19910;-89
2022/08/16 00:09:01;;;;;;;;;;;;;;;;;;4972552;28;20005;-89
2022/08/16 00:11:26;;;;;;;;;;;;;;;;;;4972736;28;19910;-90
2022/08/16 00:13:51;;;;;;;;;;;;;;;;;;4973065;28;20376;-89
2022/08/16 00:16:16;;;;;;;;;;;;;;;;;;4972414;28;20008;-89
2022/08/16 00:18:42;;;;;;;;;;;;;;;;;;4972715;28;19953;-90
2022/08/16 00:21:07;;;;;;;;;;;;;;;;;;4973058;28;20329;-89
2022/08/16 00:23:32;;;;;;;;;;;;;;;;;;4972634;28;19918;-89
2022/08/16 00:25:57;;;;;;;;;;;;;;;;;;4972643;28;19914;-89
2022/08/16 00:28:23;;;;;;;;;;;;;;;;;;4972196;28;19924;-89
2022/08/16 00:30:48;;;;;;;;;;;;;;;;;;4971973;28;19910;-90
2022/08/16 00:33:13;;;;;;;;;;;;;;;;;;4972676;28;20005;-89
2022/08/16 00:35:38;;;;;;;;;;;;;;;;;;4971980;28;19914;-89
2022/08/16 00:38:03;;;;;;;;;;;;;;;;;;4972038;28;19914;-89
2022/08/16 00:40:29;;;;;;;;;;;;;;;;;;4972440;28;20367;-89
2022/08/16 00:42:54;;;;;;;;;;;;;;;;;;4972625;28;20323;-90
2022/08/16 00:45:19;;;;;;;;;;;;;;;;;;4972363;28;19985;-89
2022/08/16 00:47:44;;;;;;;;;;;;;;;;;;4970338;28;19910;-89
2022/08/16 00:50:09;;;;;;;;;;;;;;;;;;4971889;28;19989;-89
2022/08/16 00:52:35;;;;;;;;;;;;;;;;;;4972252;28;20294;-89
2022/08/16 00:55:00;;;;;;;;;;;;;;;;;;4972210;28;19926;-89
2022/08/16 00:57:25;;;;;;;;;;;;;;;;;;4972012;28;20456;-89
2022/08/16 00:59:50;;;;;;;;;;;;;;;;;;4971994;28;19993;-88
2022/08/16 01:02:15;;;;;;;;;;;;;;;;;;4972285;28;19910;-89
2022/08/16 01:04:41;;;;;;;;;;;;;;;;;;4971892;28;19964;-89
2022/08/16 01:07:06;;;;;;;;;;;;;;;;;;4971895;28;20004;-89
2022/08/16 01:09:31;;;;;;;;;;;;;;;;;;4971534;28;19917;-89
2022/08/16 01:11:57;;;;;;;;;;;;;;;;;;4971713;28;19925;-89
2022/08/16 01:14:22;;;;;;;;;;;;;;;;;;4967248;28;19910;-89
2022/08/16 01:16:47;;;;;;;;;;;;;;;;;;4965958;28;19925;-89
2022/08/16 01:19:12;;;;;;;;;;;;;;;;;;4971976;28;20072;-89
2022/08/16 01:21:37;;;;;;;;;;;;;;;;;;4971656;28;19914;-89
2022/08/16 01:24:02;;;;;;;;;;;;;;;;;;4970341;28;19910;-89
2022/08/16 01:26:29;;;;;;;;;;;;;;;;;;4972162;28;20308;-89
2022/08/16 01:28:54;;;;;;;;;;;;;;;;;;4971712;28;19918;-90
2022/08/16 01:31:20;;;;;;;;;;;;;;;;;;4970897;28;19910;-89
2022/08/16 01:33:45;;;;;;;;;;;;;;;;;;4966447;28;19917;-89
2022/08/16 01:36:10;;;;;;;;;;;;;;;;;;4971504;28;19914;-89
2022/08/16 01:38:37;;;;;;;;;;;;;;;;;;4971327;28;19922;-89
2022/08/16 01:41:03;;;;;;;;;;;;;;;;;;4966102;28;19918;-89
2022/08/16 01:43:28;;;;;;;;;;;;;;;;;;4963231;28;19933;-89
2022/08/16 01:45:53;;;;;;;;;;;;;;;;;;4961395;28;19910;-89
2022/08/16 01:48:18;;;;;;;;;;;;;;;;;;4970856;28;19969;-89
2022/08/16 01:50:43;;;;;;;;;;;;;;;;;;4964093;28;19965;-89
2022/08/16 01:53:08;;;;;;;;;;;;;;;;;;4963759;28;19940;-88
2022/08/16 01:55:34;;;;;;;;;;;;;;;;;;4971562;28;19910;-90
2022/08/16 01:57:59;;;;;;;;;;;;;;;;;;4971219;28;19952;-89
2022/08/16 02:00:24;;;;;;;;;;;;;;;;;;4971449;28;19911;-90
2022/08/16 02:02:49;;;;;;;;;;;;;;;;;;4969157;28;20265;-90
2022/08/16 02:05:14;;;;;;;;;;;;;;;;;;4968160;28;19910;-89
2022/08/16 02:07:40;;;;;;;;;;;;;;;;;;4975216;28;19917;-90
2022/08/16 02:10:05;;;;;;;;;;;;;;;;;;4974589;28;20004;-89
2022/08/16 02:12:30;;;;;;;;;;;;;;;;;;4970807;28;19996;-89
2022/08/16 02:14:55;;;;;;;;;;;;;;;;;;4972553;28;20298;-88
2022/08/16 02:17:20;;;;;;;;;;;;;;;;;;4973936;28;19925;-88
2022/08/16 02:19:47;;;;;;;;;;;;;;;;;;4972377;28;20280;-89
2022/08/16 02:22:15;;;;;;;;;;;;;;;;;;4974205;28;19922;-89
2022/08/16 02:24:40;;;;;;;;;;;;;;;;;;4974613;28;19954;-89
2022/08/16 02:27:05;;;;;;;;;;;;;;;;;;4974296;28;20376;-89
2022/08/16 02:29:30;;;;;;;;;;;;;;;;;;4974066;28;19918;-90
2022/08/16 02:31:59;;;;;;;;;;;;;;;;;;4972835;28;20013;-89
2022/08/16 02:34:25;;;;;;;;;;;;;;;;;;4973514;28;19964;-90
2022/08/16 02:36:50;;;;;;;;;;;;;;;;;;4964151;28;19926;-89
2022/08/16 02:39:15;;;;;;;;;;;;;;;;;;4967805;28;20511;-89
2022/08/16 02:41:40;;;;;;;;;;;;;;;;;;4973433;28;19914;-89
2022/08/16 02:44:05;;;;;;;;;;;;;;;;;;4971548;28;19914;-89
2022/08/16 02:46:31;;;;;;;;;;;;;;;;;;4974287;28;20327;-89
2022/08/16 02:48:56;;;;;;;;;;;;;;;;;;4972816;28;19914;-89
2022/08/16 02:51:22;;;;;;;;;;;;;;;;;;4973977;28;19961;-89
2022/08/16 02:53:47;;;;;;;;;;;;;;;;;;4973702;28;19914;-90
2022/08/16 02:56:12;;;;;;;;;;;;;;;;;;4974156;28;19937;-89
2022/08/16 02:58:38;;;;;;;;;;;;;;;;;;4972567;28;19933;-89
2022/08/16 03:01:03;;;;;;;;;;;;;;;;;;4971360;28;19918;-90
2022/08/16 03:03:28;;;;;;;;;;;;;;;;;;4973505;28;19910;-89
2022/08/16 03:05:54;;;;;;;;;;;;;;;;;;4974125;28;20118;-89
2022/08/16 03:08:19;;;;;;;;;;;;;;;;;;4973715;28;19914;-89
2022/08/16 03:10:44;;;;;;;;;;;;;;;;;;4973514;28;19921;-89
2022/08/16 03:13:09;;;;;;;;;;;;;;;;;;4968817;28;19961;-90
2022/08/16 03:15:34;;;;;;;;;;;;;;;;;;4969752;28;19920;-89
2022/08/16 03:18:00;;;;;;;;;;;;;;;;;;4971555;28;19965;-89
2022/08/16 03:20:25;;;;;;;;;;;;;;;;;;4972131;28;19910;-89
2022/08/16 03:22:51;;;;;;;;;;;;;;;;;;4973671;28;19933;-90
2022/08/16 03:25:16;;;;;;;;;;;;;;;;;;4973654;28;20376;-89
2022/08/16 03:27:41;;;;;;;;;;;;;;;;;;4972484;28;19925;-89
2022/08/16 03:30:06;;;;;;;;;;;;;;;;;;4973557;28;19953;-90
2022/08/16 03:32:31;;;;;;;;;;;;;;;;;;4973194;28;19921;-89
2022/08/16 03:34:56;;;;;;;;;;;;;;;;;;4972474;28;19970;-89
2022/08/16 03:37:22;;;;;;;;;;;;;;;;;;4967911;28;19918;-89
2022/08/16 03:39:47;;;;;;;;;;;;;;;;;;4972707;28;20524;-89
2022/08/16 03:42:12;;;;;;;;;;;;;;;;;;4972537;28;19929;-89
2022/08/16 03:44:37;;;;;;;;;;;;;;;;;;4968317;28;19926;-89
2022/08/16 03:47:02;;;;;;;;;;;;;;;;;;4969154;28;19951;-89
2022/08/16 03:49:27;;;;;;;;;;;;;;;;;;4972463;28;19953;-89
2022/08/16 03:51:53;;;;;;;;;;;;;;;;;;4959625;28;19914;-89
2022/08/16 03:54:18;;;;;;;;;;;;;;;;;;4972367;28;19921;-89
2022/08/16 03:56:43;;;;;;;;;;;;;;;;;;4966079;28;19918;-90
2022/08/16 03:59:08;;;;;;;;;;;;;;;;;;4972674;28;19910;-89
2022/08/16 04:01:34;;;;;;;;;;;;;;;;;;4971273;28;19993;-90
2022/08/16 04:03:59;;;;;;;;;;;;;;;;;;4960417;28;19925;-89
2022/08/16 04:06:24;;;;;;;;;;;;;;;;;;4972588;28;19914;-89
2022/08/16 04:08:49;;;;;;;;;;;;;;;;;;4968636;28;19918;-89
2022/08/16 04:11:14;;;;;;;;;;;;;;;;;;4972218;28;19914;-90
2022/08/16 04:13:39;;;;;;;;;;;;;;;;;;4965908;28;20383;-89
2022/08/16 04:16:05;;;;;;;;;;;;;;;;;;4966356;28;19940;-89
2022/08/16 04:18:31;;;;;;;;;;;;;;;;;;4966745;28;19925;-89
2022/08/16 04:20:56;;;;;;;;;;;;;;;;;;4972024;28;19914;-89
2022/08/16 04:23:22;;;;;;;;;;;;;;;;;;4972271;28;19910;-90
2022/08/16 04:25:50;;;;;;;;;;;;;;;;;;4970111;28;20390;-89
2022/08/16 05:48:13;;;;;;;;;;;;;;;;;;4973991;28;19965;-86
2022/08/16 05:50:39;;;;;;;;;;;;;;;;;;4969943;28;20542;-87
2022/08/16 05:53:04;;;;;;;;;;;;;;;;;;4968877;28;19921;-87
2022/08/16 05:55:29;;;;;;;;;;;;;;;;;;4967154;28;20383;-87
2022/08/16 05:57:54;;;;;;;;;;;;;;;;;;4970369;28;19922;-86
2022/08/16 06:00:19;;;;;;;;;;;;;;;;;;4970966;23;19930;-89
2022/08/16 06:02:44;;;;;;;;;;;;;;;;;;4953867;28;19929;-89
2022/08/16 06:05:10;;;;;;;;;;;;;;;;;;4950412;28;19918;-88
2022/08/16 06:07:35;;;;;;;;;;;;;;;;;;4949978;28;19914;-88
2022/08/16 06:10:00;;;;;;;;;;;;;;;;;;4950983;28;19922;-88
2022/08/16 06:12:25;;;;;;;;;;;;;;;;;;4950837;28;19914;-87
2022/08/16 06:14:50;;;;;;;;;;;;;;;;;;4952262;28;19933;-88
2022/08/16 06:17:16;;;;;;;;;;;;;;;;;;4948404;28;19923;-87
2022/08/16 06:19:41;;;;;;;;;;;;;;;;;;4947584;29;20398;-89
2022/08/16 06:22:06;;;;;;;;;;;;;;;;;;4950464;28;19915;-89
2022/08/16 06:24:31;;;;;;;;;;;;;;;;;;4950491;28;19914;-88
2022/08/16 06:26:57;;;;;;;;;;;;;;;;;;4951077;28;20307;-88
2022/08/16 06:29:22;;;;;;;;;;;;;;;;;;4948296;28;19918;-87
2022/08/16 06:31:47;;;;;;;;;;;;;;;;;;4951380;28;19917;-88
2022/08/16 06:34:13;;;;;;;;;;;;;;;;;;4948759;28;20221;-88
2022/08/16 06:36:39;;;;;;;;;;;;;;;;;;4951737;28;20012;-89
2022/08/16 06:39:04;;;;;;;;;;;;;;;;;;4952384;28;20017;-88
2022/08/16 06:41:29;;;;;;;;;;;;;;;;;;4950744;28;19915;-88
2022/08/16 06:43:55;;;;;;;;;;;;;;;;;;4946590;28;19923;-87
2022/08/16 06:46:20;;;;;;;;;;;;;;;;;;4949139;28;19921;-88
2022/08/16 06:48:45;;;;;;;;;;;;;;;;;;4949014;28;19910;-87
2022/08/16 06:51:10;;;;;;;;;;;;;;;;;;4950050;28;20017;-87
2022/08/16 06:53:35;;;;;;;;;;;;;;;;;;4947393;28;19914;-87
2022/08/16 06:56:04;;;;;;;;;;;;;;;;;;4946945;28;19922;-88
2022/08/16 06:58:29;;;;;;;;;;;;;;;;;;4944597;29;19929;-89
2022/08/16 07:00:54;;;;;;;;;;;;;;;;;;4949984;28;20532;-87
2022/08/16 07:03:20;;;;;;;;;;;;;;;;;;4949634;28;20149;-88
2022/08/16 07:05:45;;;;;;;;;;;;;;;;;;4952786;28;20017;-87
2022/08/16 07:08:10;;;;;;;;;;;;;;;;;;4957812;28;19945;-87
2022/08/16 07:10:35;;;;;;;;;;;;;;;;;;4957759;28;19923;-87
2022/08/16 07:13:01;;;;;;;;;;;;;;;;;;4945996;28;19958;-87
2022/08/16 07:15:26;;;;;;;;;;;;;;;;;;4945813;28;19961;-87
2022/08/16 07:17:51;;;;;;;;;;;;;;;;;;4949330;28;19922;-88
2022/08/16 07:20:18;;;;;;;;;;;;;;;;;;4950223;28;19922;-88
2022/08/16 07:22:44;;;;;;;;;;;;;;;;;;4949110;28;19914;-87
2022/08/16 07:25:09;;;;;;;;;;;;;;;;;;4948265;28;19922;-87
2022/08/16 07:27:34;;;;;;;;;;;;;;;;;;4947169;28;19915;-87
2022/08/16 07:29:59;;;;;;;;;;;;;;;;;;4956577;28;19922;-88
2022/08/16 07:32:25;;;;;;;;;;;;;;;;;;4954202;28;19942;-88
2022/08/16 07:34:50;;;;;;;;;;;;;;;;;;4951237;28;19910;-87
2022/08/16 07:37:15;;;;;;;;;;;;;;;;;;4950467;28;19922;-86
2022/08/16 07:39:41;;;;;;;;;;;;;;;;;;4949595;28;19929;-86
2022/08/16 07:42:06;;;;;;;;;;;;;;;;;;4948569;28;20277;-88
2022/08/16 07:44:31;;;;;;;;;;;;;;;;;;4949617;28;19922;-90
2022/08/16 07:46:56;;;;;;;;;;;;;;;;;;4944220;28;19926;-87
2022/08/16 07:49:21;;;;;;;;;;;;;;;;;;4951542;28;19934;-88
2022/08/16 07:51:46;;;;;;;;;;;;;;;;;;4948906;28;19918;-88
2022/08/16 07:54:14;;;;;;;;;;;;;;;;;;4947440;28;20289;-88
2022/08/16 07:56:39;;;;;;;;;;;;;;;;;;4946035;28;19918;-87
2022/08/16 07:59:04;;;;;;;;;;;;;;;;;;4945207;28;20430;-87
2022/08/16 08:01:30;;;;;;;;;;;;;;;;;;4943429;28;20009;-88
2022/08/16 08:03:56;;;;;;;;;;;;;;;;;;4950085;28;19966;-87
2022/08/16 08:06:21;;;;;;;;;;;;;;;;;;4946758;28;19927;-86
2022/08/16 08:08:46;;;;;;;;;;;;;;;;;;4946104;28;20386;-87
2022/08/16 08:11:12;;;;;;;;;;;;;;;;;;4947336;28;19923;-88
2022/08/16 08:13:37;;;;;;;;;;;;;;;;;;4945161;28;19919;-87
2022/08/16 08:16:02;;;;;;;;;;;;;;;;;;4945120;28;19919;-88
2022/08/16 08:18:28;;;;;;;;;;;;;;;;;;4945090;28;20550;-88
2022/08/16 08:20:54;;;;;;;;;;;;;;;;;;4946474;28;20169;-87
2022/08/16 08:23:19;;;;;;;;;;;;;;;;;;4949950;28;19919;-87
2022/08/16 08:25:45;;;;;;;;;;;;;;;;;;4946734;28;19969;-88
2022/08/16 08:28:10;;;;;;;;;;;;;;;;;;4946531;28;19918;-87
2022/08/16 08:30:36;;;;;;;;;;;;;;;;;;4949849;28;19915;-86
2022/08/16 08:33:01;;;;;;;;;;;;;;;;;;4950479;28;20067;-88
2022/08/16 08:35:28;;;;;;;;;;;;;;;;;;4949392;28;19930;-87
2022/08/16 08:37:54;;;;;;;;;;;;;;;;;;4946736;28;19926;-87
2022/08/16 08:40:19;;;;;;;;;;;;;;;;;;4948561;28;20292;-87
2022/08/16 08:42:44;;;;;;;;;;;;;;;;;;4957598;28;19918;-87
2022/08/16 08:45:10;;;;;;;;;;;;;;;;;;4949520;28;19946;-87
2022/08/16 08:47:35;;;;;;;;;;;;;;;;;;4952823;28;19914;-87
2022/08/16 08:50:00;;;;;;;;;;;;;;;;;;4947515;28;19923;-87
2022/08/16 08:52:26;;;;;;;;;;;;;;;;;;4950553;29;19925;-87
2022/08/16 08:54:51;;;;;;;;;;;;;;;;;;4949254;28;20139;-87
2022/08/16 08:57:17;;;;;;;;;;;;;;;;;;4945525;28;19929;-87
2022/08/16 08:59:44;;;;;;;;;;;;;;;;;;4956117;28;19964;-87
2022/08/16 09:02:10;;;;;;;;;;;;;;;;;;4952266;28;20439;-87
2022/08/16 09:04:35;;;;;;;;;;;;;;;;;;4954244;28;19993;-87
2022/08/16 09:07:02;;;;;;;;;;;;;;;;;;4948836;28;20288;-87
2022/08/16 09:09:27;;;;;;;;;;;;;;;;;;4948397;28;19958;-87
2022/08/16 09:11:53;;;;;;;;;;;;;;;;;;4949015;28;19980;-87
2022/08/16 09:14:18;;;;;;;;;;;;;;;;;;4954902;28;19915;-87
2022/08/16 09:16:43;;;;;;;;;;;;;;;;;;4951984;28;20364;-87
2022/08/16 09:19:08;;;;;;;;;;;;;;;;;;4950119;28;19933;-88
2022/08/16 09:21:34;;;;;;;;;;;;;;;;;;4949441;28;20411;-87
2022/08/16 09:23:59;;;;;;;;;;;;;;;;;;4941837;28;20013;-87
2022/08/16 09:26:24;;;;;;;;;;;;;;;;;;4950344;28;19915;-87
2022/08/16 09:28:50;;;;;;;;;;;;;;;;;;4949720;28;20652;-87
2022/08/16 09:31:15;;;;;;;;;;;;;;;;;;4953045;28;19922;-87
2022/08/16 09:33:40;;;;;;;;;;;;;;;;;;4946870;28;20017;-89
2022/08/16 09:36:07;;;;;;;;;;;;;;;;;;4950440;28;20451;-87
2022/08/16 09:38:34;;;;;;;;;;;;;;;;;;4954126;28;19925;-87
2022/08/16 09:40:59;;;;;;;;;;;;;;;;;;4947482;28;19915;-89
2022/08/16 09:43:24;;;;;;;;;;;;;;;;;;4952146;28;19985;-88
2022/08/16 09:45:49;;;;;;;;;;;;;;;;;;4950682;28;20012;-88
2022/08/16 09:48:14;;;;;;;;;;;;;;;;;;4951907;28;19922;-88
2022/08/16 09:50:40;;;;;;;;;;;;;;;;;;4951909;28;19919;-89
2022/08/16 09:53:08;;;;;;;;;;;;;;;;;;4949506;28;19918;-88
2022/08/16 09:55:33;;;;;;;;;;;;;;;;;;4950383;28;19918;-88
2022/08/16 09:57:58;;;;;;;;;;;;;;;;;;4950206;28;20357;-88
2022/08/16 10:00:25;;;;;;;;;;;;;;;;;;4949430;28;19918;-88
2022/08/16 10:02:51;;;;;;;;;;;;;;;;;;4949474;28;19921;-87
2022/08/16 10:05:16;;;;;;;;;;;;;;;;;;4951258;28;19918;-88
2022/08/16 10:07:42;;;;;;;;;;;;;;;;;;4946057;28;19915;-88
2022/08/16 10:10:08;;;;;;;;;;;;;;;;;;4950219;28;20010;-87
2022/08/16 10:15:16;;;;;;;;;;;;;;;;;;4949891;29;20813;-87
2022/08/16 10:17:42;;;;;;;;;;;;;;;;;;4949367;28;19918;-87
2022/08/16 10:20:09;;;;;;;;;;;;;;;;;;4944398;28;19925;-88
2022/08/16 10:22:34;;;;;;;;;;;;;;;;;;4947808;28;19914;-87
2022/08/16 10:24:59;;;;;;;;;;;;;;;;;;4947143;28;19925;-88
2022/08/16 10:27:24;;;;;;;;;;;;;;;;;;4952915;28;20402;-87
2022/08/16 10:29:49;;;;;;;;;;;;;;;;;;4953386;28;19915;-88
2022/08/16 10:32:14;;;;;;;;;;;;;;;;;;4957830;28;20017;-88
2022/08/16 10:34:40;;;;;;;;;;;;;;;;;;4954716;28;19922;-88
2022/08/16 10:37:07;;;;;;;;;;;;;;;;;;4952408;28;19922;-87
2022/08/16 10:39:32;;;;;;;;;;;;;;;;;;4951382;28;19920;-87
2022/08/16 10:41:57;;;;;;;;;;;;;;;;;;4946267;28;19919;-88
2022/08/16 10:44:23;;;;;;;;;;;;;;;;;;4947127;28;19922;-88
2022/08/16 10:46:48;;;;;;;;;;;;;;;;;;4953811;28;19985;-87
2022/08/16 10:49:13;;;;;;;;;;;;;;;;;;4957091;28;19918;-87
2022/08/16 10:51:38;;;;;;;;;;;;;;;;;;4953766;28;19918;-88
2022/08/16 10:54:04;;;;;;;;;;;;;;;;;;4955372;28;20303;-88
2022/08/16 10:56:29;;;;;;;;;;;;;;;;;;4972136;28;19914;-88
2022/08/16 10:58:56;;;;;;;;;;;;;;;;;;4956661;28;19926;-87
2022/08/16 11:01:21;;;;;;;;;;;;;;;;;;4954580;28;19926;-87
2022/08/16 11:03:46;;;;;;;;;;;;;;;;;;4952615;28;20508;-88
2022/08/16 11:06:12;;;;;;;;;;;;;;;;;;4956508;28;20305;-87
2022/08/16 11:08:37;;;;;;;;;;;;;;;;;;4953276;28;19929;-88
2022/08/16 11:11:02;;;;;;;;;;;;;;;;;;4955957;28;20368;-88
2022/08/16 11:13:27;;;;;;;;;;;;;;;;;;4956028;28;19918;-88
2022/08/16 11:15:53;;;;;;;;;;;;;;;;;;4956904;28;19939;-88
2022/08/16 11:18:18;;;;;;;;;;;;;;;;;;4956763;28;19922;-87
2022/08/16 11:20:47;;;;;;;;;;;;;;;;;;4955826;28;19922;-88
2022/08/16 11:23:12;;;;;;;;;;;;;;;;;;4957182;28;19918;-88
2022/08/16 11:25:37;;;;;;;;;;;;;;;;;;4956153;28;20320;-89
2022/08/16 11:28:02;;;;;;;;;;;;;;;;;;4961111;28;20010;-89
2022/08/16 11:30:28;;;;;;;;;;;;;;;;;;4952924;28;20009;-88
2022/08/16 11:32:53;;;;;;;;;;;;;;;;;;4944364;28;19986;-89
2022/08/16 11:35:18;;;;;;;;;;;;;;;;;;4945553;28;19914;-89
2022/08/16 11:37:43;;;;;;;;;;;;;;;;;;4948172;28;19930;-88
2022/08/16 11:40:11;;;;;;;;;;;;;;;;;;4942176;28;20120;-89
2022/08/16 11:42:36;;;;;;;;;;;;;;;;;;4947017;28;19919;-87
2022/08/16 11:45:01;;;;;;;;;;;;;;;;;;4943882;28;20608;-88
2022/08/16 11:47:27;;;;;;;;;;;;;;;;;;4952434;28;19977;-89
2022/08/16 11:49:52;;;;;;;;;;;;;;;;;;4957343;28;20407;-90
2022/08/16 11:52:18;;;;;;;;;;;;;;;;;;4952681;29;20005;-89
2022/08/16 11:54:43;;;;;;;;;;;;;;;;;;4952747;28;20143;-88
2022/08/16 11:57:09;;;;;;;;;;;;;;;;;;4952473;28;19914;-89
2022/08/16 11:59:35;;;;;;;;;;;;;;;;;;4950941;28;19929;-88
2022/08/16 12:02:00;;;;;;;;;;;;;;;;;;4951191;28;20292;-90
2022/08/16 12:04:25;;;;;;;;;;;;;;;;;;4945388;28;19922;-89
2022/08/16 12:06:51;;;;;;;;;;;;;;;;;;4949493;28;20414;-88
2022/08/16 12:09:16;;;;;;;;;;;;;;;;;;4945216;28;20341;-89
2022/08/16 12:11:41;;;;;;;;;;;;;;;;;;4950024;28;20304;-89
2022/08/16 12:14:09;;;;;;;;;;;;;;;;;;4947311;28;20451;-87
2022/08/16 12:16:35;;;;;;;;;;;;;;;;;;4947367;28;20057;-88
2022/08/16 12:19:00;;;;;;;;;;;;;;;;;;4950426;28;19998;-87
2022/08/16 12:21:26;;;;;;;;;;;;;;;;;;4951172;28;20073;-89
2022/08/16 12:23:51;;;;;;;;;;;;;;;;;;4948867;29;19923;-89
2022/08/16 12:26:19;;;;;;;;;;;;;;;;;;4950419;28;20001;-88
2022/08/16 12:28:44;;;;;;;;;;;;;;;;;;4946069;29;19918;-88
2022/08/16 12:31:09;;;;;;;;;;;;;;;;;;4949748;28;19922;-88
2022/08/16 12:33:34;;;;;;;;;;;;;;;;;;4948043;28;19919;-88
2022/08/16 12:36:00;;;;;;;;;;;;;;;;;;4949575;28;19918;-88
2022/08/16 12:38:25;;;;;;;;;;;;;;;;;;4951151;28;19922;-88
2022/08/16 12:40:50;;;;;;;;;;;;;;;;;;4950982;28;20312;-88
2022/08/16 12:43:16;;;;;;;;;;;;;;;;;;4949683;28;20387;-88
2022/08/16 12:45:42;;;;;;;;;;;;;;;;;;4947892;28;19925;-90
2022/08/16 12:50:51;;;;;;;;;;;;;;;;;;4949888;28;19924;-89
2022/08/16 12:53:16;;;;;;;;;;;;;;;;;;4947593;29;19922;-88
2022/08/16 12:55:43;;;;;;;;;;;;;;;;;;4949587;28;19998;-88
2022/08/16 12:58:08;;;;;;;;;;;;;;;;;;4949915;28;19922;-88
2022/08/16 13:00:34;;;;;;;;;;;;;;;;;;4950118;28;19929;-89
2022/08/16 13:02:59;;;;;;;;;;;;;;;;;;4944262;28;19918;-88
2022/08/16 13:05:24;;;;;;;;;;;;;;;;;;4948501;28;20352;-88
2022/08/16 13:07:49;;;;;;;;;;;;;;;;;;4948094;28;19928;-88
2022/08/16 13:10:14;;;;;;;;;;;;;;;;;;4950098;28;20432;-88
2022/08/16 13:12:41;;;;;;;;;;;;;;;;;;4950900;28;19927;-89
2022/08/16 13:15:09;;;;;;;;;;;;;;;;;;4951780;28;19919;-89
2022/08/16 13:17:35;;;;;;;;;;;;;;;;;;4950068;28;19966;-89
2022/08/16 13:20:00;;;;;;;;;;;;;;;;;;4949893;28;19943;-88
2022/08/16 13:22:25;;;;;;;;;;;;;;;;;;4950278;28;19926;-88
2022/08/16 13:24:50;;;;;;;;;;;;;;;;;;4948183;28;20493;-88
2022/08/16 13:27:15;;;;;;;;;;;;;;;;;;4948657;28;19918;-88
2022/08/16 13:29:41;;;;;;;;;;;;;;;;;;4949709;28;20388;-87
2022/08/16 13:32:06;;;;;;;;;;;;;;;;;;4949074;28;19922;-89
2022/08/16 13:34:31;;;;;;;;;;;;;;;;;;4947242;28;20308;-90
2022/08/16 13:36:59;;;;;;;;;;;;;;;;;;4948632;28;19926;-88
2022/08/16 13:39:24;;;;;;;;;;;;;;;;;;4951138;28;20336;-88
2022/08/16 13:41:49;;;;;;;;;;;;;;;;;;4949189;28;19961;-88
2022/08/16 13:44:17;;;;;;;;;;;;;;;;;;4948987;28;19926;-88
2022/08/16 13:46:44;;;;;;;;;;;;;;;;;;4949459;28;19918;-88
2022/08/16 13:49:10;;;;;;;;;;;;;;;;;;4949029;28;19923;-88
2022/08/16 13:51:35;;;;;;;;;;;;;;;;;;4952459;28;20508;-89
2022/08/16 13:54:04;;;;;;;;;;;;;;;;;;4950081;28;19922;-89
2022/08/16 13:56:29;;;;;;;;;;;;;;;;;;4952037;28;20005;-89
2022/08/16 13:58:55;;;;;;;;;;;;;;;;;;4952326;28;20459;-89
2022/08/16 14:01:20;;;;;;;;;;;;;;;;;;4955112;28;19918;-87
2022/08/16 14:03:45;;;;;;;;;;;;;;;;;;4950547;28;20432;-88
2022/08/16 14:06:10;;;;;;;;;;;;;;;;;;4955438;28;19914;-88
2022/08/16 14:08:36;;;;;;;;;;;;;;;;;;4953567;28;20349;-90
2022/08/16 14:11:01;;;;;;;;;;;;;;;;;;4953411;28;21340;-88
2022/08/16 14:13:26;;;;;;;;;;;;;;;;;;4954790;28;19914;-88
2022/08/16 14:15:51;;;;;;;;;;;;;;;;;;4955362;28;19925;-87
2022/08/16 14:18:16;;;;;;;;;;;;;;;;;;4956329;28;20373;-88
2022/08/16 14:20:42;;;;;;;;;;;;;;;;;;4957705;28;19949;-87
2022/08/16 14:23:07;;;;;;;;;;;;;;;;;;4947976;28;20373;-89
2022/08/16 14:25:32;;;;;;;;;;;;;;;;;;4951080;28;19918;-88
2022/08/16 14:28:00;;;;;;;;;;;;;;;;;;4947820;28;19914;-87
2022/08/16 14:30:25;;;;;;;;;;;;;;;;;;4950873;28;19964;-88
2022/08/16 14:33:13;;;;;;;;;;;;;;;;;;4947270;28;19974;-88
2022/08/16 14:38:23;;;;;;;;;;;;;;;;;;4951045;28;20062;-88
2022/08/16 14:40:51;;;;;;;;;;;;;;;;;;4951833;28;19956;-88
2022/08/16 14:46:07;;;;;;;;;;;;;;;;;;4948785;28;19914;-88
2022/08/16 14:48:33;;;;;;;;;;;;;;;;;;4950893;28;19993;-88
2022/08/16 14:50:59;;;;;;;;;;;;;;;;;;4949813;28;19919;-88
2022/08/16 14:53:24;;;;;;;;;;;;;;;;;;4948348;28;19974;-88
2022/08/16 14:55:49;;;;;;;;;;;;;;;;;;4952261;28;19976;-88
2022/08/16 14:58:14;;;;;;;;;;;;;;;;;;4948456;28;21284;-88
2022/08/16 15:00:40;;;;;;;;;;;;;;;;;;4952163;28;19918;-88
2022/08/16 15:03:05;;;;;;;;;;;;;;;;;;4944460;28;19922;-90
2022/08/16 15:05:30;;;;;;;;;;;;;;;;;;4950552;28;19914;-88
2022/08/16 15:07:55;;;;;;;;;;;;;;;;;;4953869;28;19964;-88
2022/08/16 15:10:21;;;;;;;;;;;;;;;;;;4950871;28;19915;-88
2022/08/16 15:12:46;;;;;;;;;;;;;;;;;;4954853;28;20286;-88
2022/08/16 15:15:11;;;;;;;;;;;;;;;;;;4953473;28;19914;-89
2022/08/16 15:17:38;;;;;;;;;;;;;;;;;;4953848;28;19922;-89
2022/08/16 15:20:06;;;;;;;;;;;;;;;;;;4948377;28;19929;-88
2022/08/16 15:25:32;;;;;;;;;;;;;;;;;;4890309;29;20357;-88
2022/08/16 15:27:57;;;;;;;;;;;;;;;;;;4940301;28;19918;-87
2022/08/16 15:30:22;;;;;;;;;;;;;;;;;;4942153;28;20420;-87
2022/08/16 15:32:48;;;;;;;;;;;;;;;;;;4949773;28;20057;-87
2022/08/16 15:35:13;;;;;;;;;;;;;;;;;;4949159;28;19923;-87
2022/08/16 15:37:38;;;;;;;;;;;;;;;;;;4948276;28;19961;-87
2022/08/16 15:40:03;;;;;;;;;;;;;;;;;;4949437;28;19922;-87
2022/08/16 15:42:29;;;;;;;;;;;;;;;;;;4946716;28;20285;-88
2022/08/16 15:44:54;;;;;;;;;;;;;;;;;;4949416;28;20287;-90
2022/08/16 15:47:21;;;;;;;;;;;;;;;;;;4951026;28;19915;-87
2022/08/16 15:49:47;;;;;;;;;;;;;;;;;;4948329;28;19919;-88
2022/08/16 15:52:12;;;;;;;;;;;;;;;;;;4952304;28;20491;-89
2022/08/16 15:54:37;;;;;;;;;;;;;;;;;;4950271;28;19970;-88
2022/08/16 15:57:05;;;;;;;;;;;;;;;;;;4948316;28;20013;-88
2022/08/16 19:00:59;;;;;;;;;;;;;;;;;;4944379;28;19949;-86
2022/08/16 19:03:31;;;;;;;;;;;;;;;;;;4944440;28;19914;-85
2022/08/16 19:05:56;;;;;;;;;;;;;;;;;;4946518;28;20396;-87
2022/08/16 19:11:17;;;;;;;;;;;;;;;;;;4928662;29;19918;-85
2022/08/16 19:33:38;;;;;;;;;;;;;;;;;;4880280;29;19919;-85
2022/08/16 19:47:28;;;;;;;;;;;;;;;;;;;;;
2022/08/16 19:49:54;;;;;;;;;;;;;;;;;;4915368;29;19925;-86
2022/08/16 20:26:27;;;;;;;;;;;;;;;;;;4976296;28;19956;-88
2022/08/16 20:28:55;;;;;;;;;;;;;;;;;;4974566;28;20220;-89
2022/08/16 20:31:36;;;;;;;;;;;;;;;;;;4975767;28;19918;-88
2022/08/16 20:34:01;;;;;;;;;;;;;;;;;;4975297;28;19921;-89
2022/08/16 20:36:29;;;;;;;;;;;;;;;;;;4971703;28;20291;-88
2022/08/16 20:39:03;;;;;;;;;;;;;;;;;;4973700;28;19926;-88
2022/08/16 20:41:28;;;;;;;;;;;;;;;;;;4978151;28;20367;-89
2022/08/16 20:43:54;;;;;;;;;;;;;;;;;;4979185;28;19917;-88
2022/08/16 20:46:22;;;;;;;;;;;;;;;;;;4971507;28;20391;-88
2022/08/16 20:48:47;;;;;;;;;;;;;;;;;;4976337;28;19918;-88
2022/08/16 20:51:12;;;;;;;;;;;;;;;;;;4975311;28;19969;-87
2022/08/16 20:53:38;;;;;;;;;;;;;;;;;;4977216;28;21196;-89
2022/08/16 20:56:03;;;;;;;;;;;;;;;;;;4978345;28;19918;-88
2022/08/16 20:58:30;;;;;;;;;;;;;;;;;;4975581;28;19921;-88
2022/08/16 21:00:56;;;;;;;;;;;;;;;;;;4976621;28;19922;-88
2022/08/16 21:03:21;;;;;;;;;;;;;;;;;;4979932;28;20292;-88
2022/08/16 21:05:49;;;;;;;;;;;;;;;;;;4971338;28;20000;-88
2022/08/16 21:08:30;;;;;;;;;;;;;;;;;;;;;
2022/08/16 21:10:56;;;;;;;;;;;;;;;;;;4967359;28;19918;-89
2022/08/16 21:13:31;;;;;;;;;;;;;;;;;;;;;
2022/08/16 21:16:02;;;;;;;;;;;;;;;;;;4973476;28;19918;-88
2022/08/16 21:18:28;;;;;;;;;;;;;;;;;;4973478;28;20283;-87
2022/08/16 21:20:53;;;;;;;;;;;;;;;;;;4979544;28;20111;-88
2022/08/16 21:23:18;;;;;;;;;;;;;;;;;;4982318;28;20141;-87
2022/08/16 21:26:01;;;;;;;;;;;;;;;;;;4976516;28;19922;-88
2022/08/16 21:28:29;;;;;;;;;;;;;;;;;;4971079;28;19925;-88
2022/08/16 21:30:56;;;;;;;;;;;;;;;;;;4973043;28;20004;-88
2022/08/16 21:33:21;;;;;;;;;;;;;;;;;;4979141;28;19925;-88
2022/08/16 21:35:47;;;;;;;;;;;;;;;;;;4970781;28;19919;-88
2022/08/16 21:38:12;;;;;;;;;;;;;;;;;;4973525;28;19940;-88
2022/08/16 21:40:37;;;;;;;;;;;;;;;;;;4989661;28;20284;-88
2022/08/16 21:43:02;;;;;;;;;;;;;;;;;;4971584;28;20353;-88
2022/08/16 21:45:27;;;;;;;;;;;;;;;;;;4986017;28;20137;-88
2022/08/16 21:47:52;;;;;;;;;;;;;;;;;;4972297;28;19914;-87
2022/08/16 21:50:21;;;;;;;;;;;;;;;;;;4971737;28;19917;-87
2022/08/16 21:52:46;;;;;;;;;;;;;;;;;;4973120;28;19941;-87
2022/08/16 21:55:11;;;;;;;;;;;;;;;;;;4973109;28;20387;-87
2022/08/16 21:57:37;;;;;;;;;;;;;;;;;;4975360;28;20302;-87
2022/08/16 22:00:02;;;;;;;;;;;;;;;;;;4975363;28;20283;-87
2022/08/16 22:02:27;;;;;;;;;;;;;;;;;;4987996;28;20181;-87
2022/08/16 22:04:52;;;;;;;;;;;;;;;;;;4973462;28;19968;-87
2022/08/16 22:07:17;;;;;;;;;;;;;;;;;;4981042;28;19922;-87
2022/08/16 22:09:43;;;;;;;;;;;;;;;;;;4972879;28;19922;-87
2022/08/16 22:12:08;;;;;;;;;;;;;;;;;;4978867;28;19964;-88
2022/08/16 22:14:33;;;;;;;;;;;;;;;;;;4973862;28;19918;-87
2022/08/16 22:16:58;;;;;;;;;;;;;;;;;;4977421;28;19915;-87
2022/08/16 22:19:23;;;;;;;;;;;;;;;;;;4975299;28;20083;-87
2022/08/16 22:21:49;;;;;;;;;;;;;;;;;;4979593;28;19917;-88